sensor_id;sensor_type;location;lat;lon;timestamp;temperature;humidity
15274;DHT22;7738;49.532;11.156;2023-07-13T00:02:43;19.50;91.50
15274;DHT22;7738;49.532;11.156;2023-07-13T00:05:14;19.10;93.00
15274;DHT22;7738;49.532;11.156;2023-07-13T00:10:15;19.40;91.90
15274;DHT22;7738;49.532;11.156;2023-07-13T00:15:19;19.40;92.20
15274;DHT22;7738;49.532;11.156;2023-07-13T00:20:24;19.30;92.50
15274;DHT22;7738;49.532;11.156;2023-07-13T00:22:54;19.20;94.30
15274;DHT22;7738;49.532;11.156;2023-07-13T00:51:35;18.90;94.40
15274;DHT22;7738;49.532;11.156;2023-07-13T01:04:14;18.80;94.70
15274;DHT22;7738;49.532;11.156;2023-07-13T01:09:18;18.80;95.10
15274;DHT22;7738;49.532;11.156;2023-07-13T01:14:20;18.70;95.10
15274;DHT22;7738;49.532;11.156;2023-07-13T01:19:33;18.60;95.30
15274;DHT22;7738;49.532;11.156;2023-07-13T01:22:12;18.50;95.50
15274;DHT22;7738;49.532;11.156;2023-07-13T01:27:19;18.50;95.70
15274;DHT22;7738;49.532;11.156;2023-07-13T01:29:51;18.40;95.80
15274;DHT22;7738;49.532;11.156;2023-07-13T01:32:30;18.60;97.40
15274;DHT22;7738;49.532;11.156;2023-07-13T01:35:01;17.80;97.70
15274;DHT22;7738;49.532;11.156;2023-07-13T01:37:34;18.30;96.40
15274;DHT22;7738;49.532;11.156;2023-07-13T02:00:15;17.90;97.00
15274;DHT22;7738;49.532;11.156;2023-07-13T02:07:51;17.70;97.50
15274;DHT22;7738;49.532;11.156;2023-07-13T02:15:23;17.80;99.50
15274;DHT22;7738;49.532;11.156;2023-07-13T02:17:53;17.70;99.90
15274;DHT22;7738;49.532;11.156;2023-07-13T02:22:57;17.40;98.70
15274;DHT22;7738;49.532;11.156;2023-07-13T02:43:04;17.20;99.90
15274;DHT22;7738;49.532;11.156;2023-07-13T02:50:35;16.70;99.90
15274;DHT22;7738;49.532;11.156;2023-07-13T03:03:18;16.00;99.90
15274;DHT22;7738;49.532;11.156;2023-07-13T03:08:25;16.50;99.90
15274;DHT22;7738;49.532;11.156;2023-07-13T03:10:59;16.30;99.90
15274;DHT22;7738;49.532;11.156;2023-07-13T03:13:32;16.10;99.90
15274;DHT22;7738;49.532;11.156;2023-07-13T03:16:05;16.60;99.90
15274;DHT22;7738;49.532;11.156;2023-07-13T03:18:36;16.40;99.90
15274;DHT22;7738;49.532;11.156;2023-07-13T03:23:42;16.00;99.90
15274;DHT22;7738;49.532;11.156;2023-07-13T03:26:15;16.30;99.90
15274;DHT22;7738;49.532;11.156;2023-07-13T03:28:45;15.90;99.90
15274;DHT22;7738;49.532;11.156;2023-07-13T03:31:27;15.70;99.90
15274;DHT22;7738;49.532;11.156;2023-07-13T03:33:57;16.40;99.90
15274;DHT22;7738;49.532;11.156;2023-07-13T03:36:30;15.70;99.90
15274;DHT22;7738;49.532;11.156;2023-07-13T03:39:09;16.20;99.90
15274;DHT22;7738;49.532;11.156;2023-07-13T03:41:52;15.90;99.90
15274;DHT22;7738;49.532;11.156;2023-07-13T03:44:23;15.50;99.90
15274;DHT22;7738;49.532;11.156;2023-07-13T03:46:55;15.80;99.90
15274;DHT22;7738;49.532;11.156;2023-07-13T03:49:25;15.60;99.90
15274;DHT22;7738;49.532;11.156;2023-07-13T03:51:55;15.50;99.90
15274;DHT22;7738;49.532;11.156;2023-07-13T03:54:28;15.40;99.90
15274;DHT22;7738;49.532;11.156;2023-07-13T03:57:01;15.70;99.90
15274;DHT22;7738;49.532;11.156;2023-07-13T03:59:34;15.70;99.90
15274;DHT22;7738;49.532;11.156;2023-07-13T04:02:04;15.90;99.90
15274;DHT22;7738;49.532;11.156;2023-07-13T04:09:42;15.50;99.90
15274;DHT22;7738;49.532;11.156;2023-07-13T04:12:12;14.10;99.90
15274;DHT22;7738;49.532;11.156;2023-07-13T04:14:42;15.70;99.90
15274;DHT22;7738;49.532;11.156;2023-07-13T04:17:13;15.40;99.90
15274;DHT22;7738;49.532;11.156;2023-07-13T04:19:43;15.40;99.90
15274;DHT22;7738;49.532;11.156;2023-07-13T04:22:13;15.40;99.90
15274;DHT22;7738;49.532;11.156;2023-07-13T04:24:45;15.70;99.90
15274;DHT22;7738;49.532;11.156;2023-07-13T04:27:16;15.20;99.90
15274;DHT22;7738;49.532;11.156;2023-07-13T04:29:48;15.30;99.90
15274;DHT22;7738;49.532;11.156;2023-07-13T04:32:18;14.90;99.90
15274;DHT22;7738;49.532;11.156;2023-07-13T04:34:49;15.40;99.90
15274;DHT22;7738;49.532;11.156;2023-07-13T04:39:53;15.20;99.90
15274;DHT22;7738;49.532;11.156;2023-07-13T04:42:23;14.80;99.90
15274;DHT22;7738;49.532;11.156;2023-07-13T04:44:53;15.40;99.90
15274;DHT22;7738;49.532;11.156;2023-07-13T04:47:24;15.30;99.90
15274;DHT22;7738;49.532;11.156;2023-07-13T04:49:54;14.80;99.90
15274;DHT22;7738;49.532;11.156;2023-07-13T04:52:25;15.40;99.90
15274;DHT22;7738;49.532;11.156;2023-07-13T04:54:58;15.40;99.90
15274;DHT22;7738;49.532;11.156;2023-07-13T04:57:29;15.40;99.90
15274;DHT22;7738;49.532;11.156;2023-07-13T04:59:59;15.80;99.90
15274;DHT22;7738;49.532;11.156;2023-07-13T05:02:33;15.70;99.90
15274;DHT22;7738;49.532;11.156;2023-07-13T05:05:04;15.30;99.90
15274;DHT22;7738;49.532;11.156;2023-07-13T05:07:34;16.00;99.90
15274;DHT22;7738;49.532;11.156;2023-07-13T05:10:08;16.10;99.90
15274;DHT22;7738;49.532;11.156;2023-07-13T05:12:38;16.20;99.90
15274;DHT22;7738;49.532;11.156;2023-07-13T05:15:09;16.10;99.90
15274;DHT22;7738;49.532;11.156;2023-07-13T05:20:10;15.90;99.90
15274;DHT22;7738;49.532;11.156;2023-07-13T05:22:40;16.20;99.90
15274;DHT22;7738;49.532;11.156;2023-07-13T05:25:13;16.00;99.90
15274;DHT22;7738;49.532;11.156;2023-07-13T05:27:43;16.40;99.90
15274;DHT22;7738;49.532;11.156;2023-07-13T05:30:14;15.60;99.90
15274;DHT22;7738;49.532;11.156;2023-07-13T05:32:44;15.80;99.90
15274;DHT22;7738;49.532;11.156;2023-07-13T05:35:14;16.50;99.90
15274;DHT22;7738;49.532;11.156;2023-07-13T05:37:44;16.60;99.90
15274;DHT22;7738;49.532;11.156;2023-07-13T05:40:17;16.50;99.90
15274;DHT22;7738;49.532;11.156;2023-07-13T05:42:47;17.00;99.90
15274;DHT22;7738;49.532;11.156;2023-07-13T05:47:48;16.90;99.90
15274;DHT22;7738;49.532;11.156;2023-07-13T05:50:18;16.60;99.90
15274;DHT22;7738;49.532;11.156;2023-07-13T05:52:49;17.40;99.90
15274;DHT22;7738;49.532;11.156;2023-07-13T05:55:22;16.60;99.90
15274;DHT22;7738;49.532;11.156;2023-07-13T05:57:52;17.50;99.90
15274;DHT22;7738;49.532;11.156;2023-07-13T06:00:22;16.80;99.90
15274;DHT22;7738;49.532;11.156;2023-07-13T06:02:52;17.00;99.90
15274;DHT22;7738;49.532;11.156;2023-07-13T06:05:23;17.50;99.90
15274;DHT22;7738;49.532;11.156;2023-07-13T06:07:54;17.50;99.90
15274;DHT22;7738;49.532;11.156;2023-07-13T06:10:27;17.50;99.90
15274;DHT22;7738;49.532;11.156;2023-07-13T06:12:57;17.60;99.90
15274;DHT22;7738;49.532;11.156;2023-07-13T06:15:27;17.80;99.90
15274;DHT22;7738;49.532;11.156;2023-07-13T06:17:57;17.60;99.30
15274;DHT22;7738;49.532;11.156;2023-07-13T06:20:28;18.00;99.30
15274;DHT22;7738;49.532;11.156;2023-07-13T06:22:58;17.50;98.40
15274;DHT22;7738;49.532;11.156;2023-07-13T06:25:31;17.90;99.10
15274;DHT22;7738;49.532;11.156;2023-07-13T06:30:32;17.10;98.00
15274;DHT22;7738;49.532;11.156;2023-07-13T06:33:02;18.00;98.70
15274;DHT22;7738;49.532;11.156;2023-07-13T06:35:32;18.20;98.50
15274;DHT22;7738;49.532;11.156;2023-07-13T06:38:02;18.00;98.30
15274;DHT22;7738;49.532;11.156;2023-07-13T06:40:35;18.70;97.80
15274;DHT22;7738;49.532;11.156;2023-07-13T06:43:05;19.40;97.40
15274;DHT22;7738;49.532;11.156;2023-07-13T06:45:40;19.10;95.90
15274;DHT22;7738;49.532;11.156;2023-07-13T06:48:13;18.90;95.80
15274;DHT22;7738;49.532;11.156;2023-07-13T06:50:43;19.40;96.10
15274;DHT22;7738;49.532;11.156;2023-07-13T06:53:14;19.30;95.50
15274;DHT22;7738;49.532;11.156;2023-07-13T06:55:46;19.00;94.90
15274;DHT22;7738;49.532;11.156;2023-07-13T06:58:18;18.60;95.90
15274;DHT22;7738;49.532;11.156;2023-07-13T07:00:50;19.20;95.40
15274;DHT22;7738;49.532;11.156;2023-07-13T07:03:21;18.90;96.30
15274;DHT22;7738;49.532;11.156;2023-07-13T07:05:51;18.70;95.90
15274;DHT22;7738;49.532;11.156;2023-07-13T07:08:21;19.20;96.40
15274;DHT22;7738;49.532;11.156;2023-07-13T07:10:54;18.90;96.40
15274;DHT22;7738;49.532;11.156;2023-07-13T07:13:24;19.40;95.50
15274;DHT22;7738;49.532;11.156;2023-07-13T07:15:55;19.00;95.30
15274;DHT22;7738;49.532;11.156;2023-07-13T07:18:27;19.80;95.20
15274;DHT22;7738;49.532;11.156;2023-07-13T07:20:57;20.00;94.50
15274;DHT22;7738;49.532;11.156;2023-07-13T07:23:27;20.30;93.50
15274;DHT22;7738;49.532;11.156;2023-07-13T07:26:00;20.20;93.00
15274;DHT22;7738;49.532;11.156;2023-07-13T07:28:31;19.70;91.90
15274;DHT22;7738;49.532;11.156;2023-07-13T07:31:04;20.40;91.60
15274;DHT22;7738;49.532;11.156;2023-07-13T07:33:37;20.20;91.70
15274;DHT22;7738;49.532;11.156;2023-07-13T07:36:07;20.20;91.40
15274;DHT22;7738;49.532;11.156;2023-07-13T07:41:13;20.10;91.30
15274;DHT22;7738;49.532;11.156;2023-07-13T07:43:46;20.20;91.50
15274;DHT22;7738;49.532;11.156;2023-07-13T07:48:47;20.50;90.00
15274;DHT22;7738;49.532;11.156;2023-07-13T07:51:17;19.90;90.00
15274;DHT22;7738;49.532;11.156;2023-07-13T07:53:48;19.30;89.20
15274;DHT22;7738;49.532;11.156;2023-07-13T07:56:21;20.00;90.50
15274;DHT22;7738;49.532;11.156;2023-07-13T07:58:54;18.60;89.10
15274;DHT22;7738;49.532;11.156;2023-07-13T08:01:27;19.70;90.50
15274;DHT22;7738;49.532;11.156;2023-07-13T08:04:00;20.30;89.80
15274;DHT22;7738;49.532;11.156;2023-07-13T08:06:33;20.60;89.20
15274;DHT22;7738;49.532;11.156;2023-07-13T08:09:06;20.50;87.40
15274;DHT22;7738;49.532;11.156;2023-07-13T08:11:39;21.10;86.20
15274;DHT22;7738;49.532;11.156;2023-07-13T08:14:12;21.00;85.60
15274;DHT22;7738;49.532;11.156;2023-07-13T08:16:43;21.70;86.20
15274;DHT22;7738;49.532;11.156;2023-07-13T08:19:13;21.40;81.10
15274;DHT22;7738;49.532;11.156;2023-07-13T08:21:43;21.70;80.00
15274;DHT22;7738;49.532;11.156;2023-07-13T08:24:15;21.90;78.00
15274;DHT22;7738;49.532;11.156;2023-07-13T08:26:48;22.60;77.60
15274;DHT22;7738;49.532;11.156;2023-07-13T08:31:48;22.00;71.70
15274;DHT22;7738;49.532;11.156;2023-07-13T08:34:18;22.50;71.10
15274;DHT22;7738;49.532;11.156;2023-07-13T08:36:48;22.60;69.80
15274;DHT22;7738;49.532;11.156;2023-07-13T08:39:18;22.80;68.90
15274;DHT22;7738;49.532;11.156;2023-07-13T08:41:56;23.10;67.20
15274;DHT22;7738;49.532;11.156;2023-07-13T08:44:37;23.30;66.70
15274;DHT22;7738;49.532;11.156;2023-07-13T08:47:10;23.60;64.90
15274;DHT22;7738;49.532;11.156;2023-07-13T08:49:41;23.70;62.30
15274;DHT22;7738;49.532;11.156;2023-07-13T08:52:17;23.90;59.70
15274;DHT22;7738;49.532;11.156;2023-07-13T08:54:52;23.70;59.50
15274;DHT22;7738;49.532;11.156;2023-07-13T08:57:30;23.60;59.50
15274;DHT22;7738;49.532;11.156;2023-07-13T09:00:01;24.10;61.10
15274;DHT22;7738;49.532;11.156;2023-07-13T09:02:38;24.10;61.90
15274;DHT22;7738;49.532;11.156;2023-07-13T09:05:14;24.30;57.10
15274;DHT22;7738;49.532;11.156;2023-07-13T09:07:58;24.10;55.80
15274;DHT22;7738;49.532;11.156;2023-07-13T09:10:32;24.90;54.30
15274;DHT22;7738;49.532;11.156;2023-07-13T09:13:19;25.60;56.30
15274;DHT22;7738;49.532;11.156;2023-07-13T09:18:28;25.10;53.70
15274;DHT22;7738;49.532;11.156;2023-07-13T09:21:03;25.20;52.90
15274;DHT22;7738;49.532;11.156;2023-07-13T09:23:35;25.20;52.50
15274;DHT22;7738;49.532;11.156;2023-07-13T09:26:10;25.40;52.80
15274;DHT22;7738;49.532;11.156;2023-07-13T09:28:47;25.50;53.50
15274;DHT22;7738;49.532;11.156;2023-07-13T09:31:23;25.60;52.00
15274;DHT22;7738;49.532;11.156;2023-07-13T09:33:54;25.70;53.30
15274;DHT22;7738;49.532;11.156;2023-07-13T09:36:28;25.70;53.10
15274;DHT22;7738;49.532;11.156;2023-07-13T09:39:02;25.00;53.30
15274;DHT22;7738;49.532;11.156;2023-07-13T09:41:39;25.50;50.70
15274;DHT22;7738;49.532;11.156;2023-07-13T09:44:15;25.30;50.10
15274;DHT22;7738;49.532;11.156;2023-07-13T09:46:52;24.60;49.60
15274;DHT22;7738;49.532;11.156;2023-07-13T09:49:24;24.70;50.10
15274;DHT22;7738;49.532;11.156;2023-07-13T09:51:59;25.10;50.00
15274;DHT22;7738;49.532;11.156;2023-07-13T09:54:33;25.40;49.30
15274;DHT22;7738;49.532;11.156;2023-07-13T09:57:11;25.80;50.40
15274;DHT22;7738;49.532;11.156;2023-07-13T09:59:47;26.30;48.60
15274;DHT22;7738;49.532;11.156;2023-07-13T10:02:26;26.40;46.70
15274;DHT22;7738;49.532;11.156;2023-07-13T10:04:57;26.90;46.90
15274;DHT22;7738;49.532;11.156;2023-07-13T10:07:28;26.80;47.10
15274;DHT22;7738;49.532;11.156;2023-07-13T10:09:59;27.10;47.50
15274;DHT22;7738;49.532;11.156;2023-07-13T10:12:35;26.70;47.00
15274;DHT22;7738;49.532;11.156;2023-07-13T10:15:15;31.50;50.40
15274;DHT22;7738;49.532;11.156;2023-07-13T10:17:52;26.80;46.00
15274;DHT22;7738;49.532;11.156;2023-07-13T10:20:23;26.80;47.10
15274;DHT22;7738;49.532;11.156;2023-07-13T10:22:58;27.10;48.00
15274;DHT22;7738;49.532;11.156;2023-07-13T10:25:32;27.00;47.10
15274;DHT22;7738;49.532;11.156;2023-07-13T10:28:06;27.10;46.00
15274;DHT22;7738;49.532;11.156;2023-07-13T10:30:45;27.00;45.70
15274;DHT22;7738;49.532;11.156;2023-07-13T10:33:17;26.10;46.50
15274;DHT22;7738;49.532;11.156;2023-07-13T10:35:49;24.80;48.70
15274;DHT22;7738;49.532;11.156;2023-07-13T10:38:22;24.70;51.40
15274;DHT22;7738;49.532;11.156;2023-07-13T10:40:59;24.50;48.70
15274;DHT22;7738;49.532;11.156;2023-07-13T10:43:34;24.30;49.70
15274;DHT22;7738;49.532;11.156;2023-07-13T10:46:11;25.20;50.80
15274;DHT22;7738;49.532;11.156;2023-07-13T10:48:44;26.10;49.10
15274;DHT22;7738;49.532;11.156;2023-07-13T10:51:18;26.90;48.20
15274;DHT22;7738;49.532;11.156;2023-07-13T10:54:11;27.50;46.60
15274;DHT22;7738;49.532;11.156;2023-07-13T10:56:46;26.80;45.40
15274;DHT22;7738;49.532;11.156;2023-07-13T10:59:20;25.90;46.90
15274;DHT22;7738;49.532;11.156;2023-07-13T11:02:09;25.00;48.80
15274;DHT22;7738;49.532;11.156;2023-07-13T11:04:42;25.60;50.10
15274;DHT22;7738;49.532;11.156;2023-07-13T11:07:20;25.20;48.80
15274;DHT22;7738;49.532;11.156;2023-07-13T11:09:52;26.00;49.00
15274;DHT22;7738;49.532;11.156;2023-07-13T11:12:50;26.50;47.70
15274;DHT22;7738;49.532;11.156;2023-07-13T11:15:44;27.20;46.40
15274;DHT22;7738;49.532;11.156;2023-07-13T11:18:24;26.20;47.40
15274;DHT22;7738;49.532;11.156;2023-07-13T11:21:13;25.70;48.90
15274;DHT22;7738;49.532;11.156;2023-07-13T11:24:04;25.50;48.70
15274;DHT22;7738;49.532;11.156;2023-07-13T11:26:43;25.50;48.60
15274;DHT22;7738;49.532;11.156;2023-07-13T11:29:25;25.50;47.70
15274;DHT22;7738;49.532;11.156;2023-07-13T11:31:57;25.50;48.30
15274;DHT22;7738;49.532;11.156;2023-07-13T11:34:35;26.50;48.20
15274;DHT22;7738;49.532;11.156;2023-07-13T11:37:11;27.80;47.60
15274;DHT22;7738;49.532;11.156;2023-07-13T11:39:43;27.10;45.00
15274;DHT22;7738;49.532;11.156;2023-07-13T11:42:16;27.10;44.80
15274;DHT22;7738;49.532;11.156;2023-07-13T11:44:49;26.10;46.10
15274;DHT22;7738;49.532;11.156;2023-07-13T11:47:40;25.60;48.00
15274;DHT22;7738;49.532;11.156;2023-07-13T11:50:21;25.60;48.90
15274;DHT22;7738;49.532;11.156;2023-07-13T11:52:52;26.40;48.40
15274;DHT22;7738;49.532;11.156;2023-07-13T11:55:24;26.60;47.90
15274;DHT22;7738;49.532;11.156;2023-07-13T11:57:58;27.00;47.80
15274;DHT22;7738;49.532;11.156;2023-07-13T12:00:30;26.50;47.70
15274;DHT22;7738;49.532;11.156;2023-07-13T12:03:02;26.20;47.60
15274;DHT22;7738;49.532;11.156;2023-07-13T12:05:35;25.50;48.50
15274;DHT22;7738;49.532;11.156;2023-07-13T12:08:10;25.30;48.80
15274;DHT22;7738;49.532;11.156;2023-07-13T12:11:00;25.60;48.40
15274;DHT22;7738;49.532;11.156;2023-07-13T12:13:36;26.20;48.50
15274;DHT22;7738;49.532;11.156;2023-07-13T12:16:12;26.50;48.30
15274;DHT22;7738;49.532;11.156;2023-07-13T12:18:44;26.40;48.60
15274;DHT22;7738;49.532;11.156;2023-07-13T12:21:20;26.20;47.90
15274;DHT22;7738;49.532;11.156;2023-07-13T12:26:22;25.50;48.90
15274;DHT22;7738;49.532;11.156;2023-07-13T12:28:54;25.20;48.70
15274;DHT22;7738;49.532;11.156;2023-07-13T12:31:31;24.80;50.20
15274;DHT22;7738;49.532;11.156;2023-07-13T12:34:05;25.80;50.50
15274;DHT22;7738;49.532;11.156;2023-07-13T12:36:40;25.90;47.40
15274;DHT22;7738;49.532;11.156;2023-07-13T12:39:18;26.20;49.30
15274;DHT22;7738;49.532;11.156;2023-07-13T12:41:48;26.20;49.60
15274;DHT22;7738;49.532;11.156;2023-07-13T12:44:27;26.10;48.00
15274;DHT22;7738;49.532;11.156;2023-07-13T12:47:02;26.40;48.80
15274;DHT22;7738;49.532;11.156;2023-07-13T12:49:34;27.30;48.10
15274;DHT22;7738;49.532;11.156;2023-07-13T12:52:14;27.30;46.20
15274;DHT22;7738;49.532;11.156;2023-07-13T12:54:53;26.90;46.50
15274;DHT22;7738;49.532;11.156;2023-07-13T12:57:38;26.80;47.20
15274;DHT22;7738;49.532;11.156;2023-07-13T13:00:23;26.90;47.50
15274;DHT22;7738;49.532;11.156;2023-07-13T13:02:56;26.70;48.10
15274;DHT22;7738;49.532;11.156;2023-07-13T13:05:48;26.00;47.50
15274;DHT22;7738;49.532;11.156;2023-07-13T13:08:20;25.80;49.60
15274;DHT22;7738;49.532;11.156;2023-07-13T13:10:50;25.30;49.10
15274;DHT22;7738;49.532;11.156;2023-07-13T13:13:21;25.30;50.60
15274;DHT22;7738;49.532;11.156;2023-07-13T13:18:23;25.70;49.50
15274;DHT22;7738;49.532;11.156;2023-07-13T13:20:53;26.00;50.20
15274;DHT22;7738;49.532;11.156;2023-07-13T13:23:26;26.80;49.70
15274;DHT22;7738;49.532;11.156;2023-07-13T13:28:27;27.90;46.70
15274;DHT22;7738;49.532;11.156;2023-07-13T13:30:57;28.40;44.60
15274;DHT22;7738;49.532;11.156;2023-07-13T13:33:28;28.60;44.80
15274;DHT22;7738;49.532;11.156;2023-07-13T13:38:32;28.40;44.80
15274;DHT22;7738;49.532;11.156;2023-07-13T13:41:03;27.40;43.90
15274;DHT22;7738;49.532;11.156;2023-07-13T13:43:33;27.50;45.80
15274;DHT22;7738;49.532;11.156;2023-07-13T13:46:12;26.50;46.50
15274;DHT22;7738;49.532;11.156;2023-07-13T13:48:43;25.20;47.80
15274;DHT22;7738;49.532;11.156;2023-07-13T13:51:16;26.40;48.20
15274;DHT22;7738;49.532;11.156;2023-07-13T13:53:50;26.00;48.10
15274;DHT22;7738;49.532;11.156;2023-07-13T13:56:20;26.00;48.70
15274;DHT22;7738;49.532;11.156;2023-07-13T14:01:22;27.80;48.80
15274;DHT22;7738;49.532;11.156;2023-07-13T14:03:53;27.70;49.00
15274;DHT22;7738;49.532;11.156;2023-07-13T14:06:24;28.40;45.90
15274;DHT22;7738;49.532;11.156;2023-07-13T14:08:58;28.30;45.70
15274;DHT22;7738;49.532;11.156;2023-07-13T14:11:30;28.10;46.30
15274;DHT22;7738;49.532;11.156;2023-07-13T14:14:04;27.90;45.50
15274;DHT22;7738;49.532;11.156;2023-07-13T14:16:35;27.40;46.90
15274;DHT22;7738;49.532;11.156;2023-07-13T14:21:37;26.60;46.80
15274;DHT22;7738;49.532;11.156;2023-07-13T14:24:10;26.70;47.20
15274;DHT22;7738;49.532;11.156;2023-07-13T14:26:40;26.80;47.90
15274;DHT22;7738;49.532;11.156;2023-07-13T14:29:14;25.80;47.40
15274;DHT22;7738;49.532;11.156;2023-07-13T14:31:50;25.50;48.50
15274;DHT22;7738;49.532;11.156;2023-07-13T14:34:20;25.80;49.00
15274;DHT22;7738;49.532;11.156;2023-07-13T14:36:51;24.80;49.40
15274;DHT22;7738;49.532;11.156;2023-07-13T14:39:26;24.50;49.70
15274;DHT22;7738;49.532;11.156;2023-07-13T14:41:57;24.70;50.90
15274;DHT22;7738;49.532;11.156;2023-07-13T14:44:28;24.80;50.40
15274;DHT22;7738;49.532;11.156;2023-07-13T14:47:00;24.50;49.80
15274;DHT22;7738;49.532;11.156;2023-07-13T14:49:33;24.80;50.60
15274;DHT22;7738;49.532;11.156;2023-07-13T14:52:12;25.70;49.90
15274;DHT22;7738;49.532;11.156;2023-07-13T14:54:46;26.60;49.00
15274;DHT22;7738;49.532;11.156;2023-07-13T14:57:17;25.90;47.80
15274;DHT22;7738;49.532;11.156;2023-07-13T14:59:48;25.30;48.90
15274;DHT22;7738;49.532;11.156;2023-07-13T15:02:24;24.70;49.30
15274;DHT22;7738;49.532;11.156;2023-07-13T15:10:11;24.50;50.60
15274;DHT22;7738;49.532;11.156;2023-07-13T15:12:41;24.10;50.40
15274;DHT22;7738;49.532;11.156;2023-07-13T15:15:12;24.00;50.40
15274;DHT22;7738;49.532;11.156;2023-07-13T15:17:44;24.00;51.20
15274;DHT22;7738;49.532;11.156;2023-07-13T15:20:21;23.90;51.60
15274;DHT22;7738;49.532;11.156;2023-07-13T15:22:53;24.00;50.70
15274;DHT22;7738;49.532;11.156;2023-07-13T15:25:28;24.20;51.10
15274;DHT22;7738;49.532;11.156;2023-07-13T15:27:59;24.00;50.80
15274;DHT22;7738;49.532;11.156;2023-07-13T15:30:31;24.90;51.80
15274;DHT22;7738;49.532;11.156;2023-07-13T15:33:11;25.30;49.40
15274;DHT22;7738;49.532;11.156;2023-07-13T15:38:19;25.40;49.00
15274;DHT22;7738;49.532;11.156;2023-07-13T15:40:53;24.90;49.80
15274;DHT22;7738;49.532;11.156;2023-07-13T15:43:23;25.00;49.80
15274;DHT22;7738;49.532;11.156;2023-07-13T15:45:54;25.00;49.10
15274;DHT22;7738;49.532;11.156;2023-07-13T15:48:25;25.60;49.90
15274;DHT22;7738;49.532;11.156;2023-07-13T15:51:01;25.80;49.80
15274;DHT22;7738;49.532;11.156;2023-07-13T15:53:33;25.80;49.80
15274;DHT22;7738;49.532;11.156;2023-07-13T15:56:16;25.40;48.30
15274;DHT22;7738;49.532;11.156;2023-07-13T15:58:48;25.20;48.90
15274;DHT22;7738;49.532;11.156;2023-07-13T16:01:18;24.90;50.10
15274;DHT22;7738;49.532;11.156;2023-07-13T16:03:49;24.60;50.60
15274;DHT22;7738;49.532;11.156;2023-07-13T16:06:24;24.90;51.10
15274;DHT22;7738;49.532;11.156;2023-07-13T16:11:33;25.50;50.20
15274;DHT22;7738;49.532;11.156;2023-07-13T16:14:04;25.20;50.60
15274;DHT22;7738;49.532;11.156;2023-07-13T16:19:05;24.30;50.20
15274;DHT22;7738;49.532;11.156;2023-07-13T16:21:42;24.60;51.00
15274;DHT22;7738;49.532;11.156;2023-07-13T16:24:16;24.30;50.80
15274;DHT22;7738;49.532;11.156;2023-07-13T16:26:50;24.20;51.20
15274;DHT22;7738;49.532;11.156;2023-07-13T16:29:25;23.80;51.10
15274;DHT22;7738;49.532;11.156;2023-07-13T16:31:57;24.00;51.50
15274;DHT22;7738;49.532;11.156;2023-07-13T16:34:29;24.00;51.70
15274;DHT22;7738;49.532;11.156;2023-07-13T16:37:00;24.30;52.10
15274;DHT22;7738;49.532;11.156;2023-07-13T16:39:32;23.80;51.90
15274;DHT22;7738;49.532;11.156;2023-07-13T16:42:05;24.00;51.80
15274;DHT22;7738;49.532;11.156;2023-07-13T16:47:12;24.20;52.10
15274;DHT22;7738;49.532;11.156;2023-07-13T16:49:43;24.00;52.50
15274;DHT22;7738;49.532;11.156;2023-07-13T16:52:15;24.20;52.60
15274;DHT22;7738;49.532;11.156;2023-07-13T16:54:48;24.00;51.40
15274;DHT22;7738;49.532;11.156;2023-07-13T16:57:29;23.80;50.10
15274;DHT22;7738;49.532;11.156;2023-07-13T17:00:01;23.60;51.40
15274;DHT22;7738;49.532;11.156;2023-07-13T17:02:37;23.60;50.90
15274;DHT22;7738;49.532;11.156;2023-07-13T17:05:10;23.90;51.60
15274;DHT22;7738;49.532;11.156;2023-07-13T17:10:18;23.40;51.20
15274;DHT22;7738;49.532;11.156;2023-07-13T17:12:54;23.80;51.20
15274;DHT22;7738;49.532;11.156;2023-07-13T17:15:26;23.70;51.60
15274;DHT22;7738;49.532;11.156;2023-07-13T17:20:40;22.70;51.40
15274;DHT22;7738;49.532;11.156;2023-07-13T17:23:15;23.60;52.00
15274;DHT22;7738;49.532;11.156;2023-07-13T17:25:47;23.60;52.20
15274;DHT22;7738;49.532;11.156;2023-07-13T17:28:22;22.90;51.80
15274;DHT22;7738;49.532;11.156;2023-07-13T17:30:53;23.30;52.40
15274;DHT22;7738;49.532;11.156;2023-07-13T17:33:28;22.80;52.30
15274;DHT22;7738;49.532;11.156;2023-07-13T17:36:00;23.40;53.00
15274;DHT22;7738;49.532;11.156;2023-07-13T17:38:35;20.60;50.80
15274;DHT22;7738;49.532;11.156;2023-07-13T17:43:45;22.40;53.20
15274;DHT22;7738;49.532;11.156;2023-07-13T17:46:18;22.10;53.30
15274;DHT22;7738;49.532;11.156;2023-07-13T17:48:49;22.40;53.40
15274;DHT22;7738;49.532;11.156;2023-07-13T17:51:21;22.50;54.80
15274;DHT22;7738;49.532;11.156;2023-07-13T17:53:55;22.00;55.20
15274;DHT22;7738;49.532;11.156;2023-07-13T17:59:01;22.40;54.60
15274;DHT22;7738;49.532;11.156;2023-07-13T18:01:32;22.30;55.10
15274;DHT22;7738;49.532;11.156;2023-07-13T18:04:06;22.00;55.80
15274;DHT22;7738;49.532;11.156;2023-07-13T18:06:39;22.40;56.80
15274;DHT22;7738;49.532;11.156;2023-07-13T18:09:16;22.10;55.80
15274;DHT22;7738;49.532;11.156;2023-07-13T18:11:47;22.00;56.60
15274;DHT22;7738;49.532;11.156;2023-07-13T18:14:21;21.80;55.90
15274;DHT22;7738;49.532;11.156;2023-07-13T18:16:54;22.00;56.10
15274;DHT22;7738;49.532;11.156;2023-07-13T18:19:29;21.90;56.30
15274;DHT22;7738;49.532;11.156;2023-07-13T18:22:01;22.10;57.70
15274;DHT22;7738;49.532;11.156;2023-07-13T18:27:02;21.80;57.50
15274;DHT22;7738;49.532;11.156;2023-07-13T18:29:37;21.50;58.30
15274;DHT22;7738;49.532;11.156;2023-07-13T18:32:17;21.70;57.40
15274;DHT22;7738;49.532;11.156;2023-07-13T18:34:49;21.50;58.50
15274;DHT22;7738;49.532;11.156;2023-07-13T18:37:21;21.70;59.10
15274;DHT22;7738;49.532;11.156;2023-07-13T18:39:52;21.40;57.70
15274;DHT22;7738;49.532;11.156;2023-07-13T18:42:23;21.30;57.80
15274;DHT22;7738;49.532;11.156;2023-07-13T18:44:57;21.20;58.60
15274;DHT22;7738;49.532;11.156;2023-07-13T18:50:01;21.20;58.00
15274;DHT22;7738;49.532;11.156;2023-07-13T18:52:32;21.10;60.00
15274;DHT22;7738;49.532;11.156;2023-07-13T18:55:13;20.80;59.00
15274;DHT22;7738;49.532;11.156;2023-07-13T18:57:43;20.40;59.00
15274;DHT22;7738;49.532;11.156;2023-07-13T19:00:18;20.30;59.80
15274;DHT22;7738;49.532;11.156;2023-07-13T19:02:49;21.10;60.80
15274;DHT22;7738;49.532;11.156;2023-07-13T19:05:22;20.90;60.70
15274;DHT22;7738;49.532;11.156;2023-07-13T19:07:53;19.90;60.10
15274;DHT22;7738;49.532;11.156;2023-07-13T19:10:27;19.80;59.90
15274;DHT22;7738;49.532;11.156;2023-07-13T19:12:59;20.70;61.50
15274;DHT22;7738;49.532;11.156;2023-07-13T19:15:33;20.10;60.00
15274;DHT22;7738;49.532;11.156;2023-07-13T19:18:15;20.10;61.10
15274;DHT22;7738;49.532;11.156;2023-07-13T19:20:46;20.30;61.50
15274;DHT22;7738;49.532;11.156;2023-07-13T19:23:24;19.80;63.40
15274;DHT22;7738;49.532;11.156;2023-07-13T19:25:57;19.40;63.80